Terminal Aerodrome Forecast
Issued by NWS Austin/San Antonio, TX

Home | Current Version | Previous Version | Text Only | Print | Product List | Glossary On
Versions: 1 2 3 4 5 6 7 8 9 10 11 12 13 14 15 16 17 18 19
000
FTUS44 KEWX 301700
TAFAUS
TAF
KAUS 301728Z 3018/3124 11007KT P6SM SCT040 BKN250
     FM302200 15010KT P6SM SCT045 BKN120 BKN250
     FM310800 17003KT P6SM BKN010
     FM311600 17010KT P6SM SCT035=

USA.gov is the U.S. government's official web portal to all federal, state and local government web resources and services.